Time;durP1;ratioP1;P1;durP2;ratioP2;P2;SDS_P1;SDS_P2;PMS_P1;PMS_P2;Temp;Humidity;BMP_temperature;BMP_pressure;BME280_temperature;BME280_humidity;BME280_pressure;Samples;Min_cycle;Max_cycle;Signal;HPM_P1;HPM_P2
2022/06/18 09:56:44;;;;;;;4.10;1.25;;;34.50;67.20;;;;;;2578576;54;20770;31
2022/06/18 09:59:20;;;;;;;2.50;0.90;;;34.50;65.40;;;;;;2582328;54;20982;31
2022/06/18 10:01:56;;;;;;;4.10;0.70;;;34.40;66.30;;;;;;2582946;54;20400;31
2022/06/18 10:07:30;;;;;;;7.17;1.10;;;34.00;65.70;;;;;;2583043;54;20038;31
2022/06/18 10:10:13;;;;;;;2.65;0.70;;;34.10;65.80;;;;;;2583461;54;20085;31
2022/06/18 10:12:56;;;;;;;8.00;1.30;;;33.90;65.20;;;;;;2603787;47;21346;31
2022/06/18 10:15:37;;;;;;;4.20;0.70;;;33.90;67.50;;;;;;2683196;39;22295;31
2022/06/18 10:18:29;;;;;;;4.43;0.85;;;33.90;66.10;;;;;;2585185;54;20980;31
2022/06/18 10:21:14;;;;;;;4.18;1.35;;;33.90;67.30;;;;;;2604001;47;20116;31
2022/06/18 10:26:42;;;;;;;5.13;1.03;;;34.20;67.50;;;;;;2754020;31;21632;31
2022/06/18 10:29:17;;;;;;;1.70;0.70;;;34.10;67.20;;;;;;2683111;39;22335;31
2022/06/18 10:32:09;;;;;;;3.90;0.70;;;34.20;67.30;;;;;;2584712;54;20113;31
2022/06/18 10:34:55;;;;;;;5.30;0.65;;;34.30;65.80;;;;;;2585275;54;20108;31
2022/06/18 10:37:33;;;;;;;4.30;0.80;;;34.30;66.00;;;;;;2585226;54;21739;31
2022/06/18 10:40:32;;;;;;;3.83;0.53;;;34.30;66.10;;;;;;2585187;54;20034;31
2022/06/18 10:43:08;;;;;;;3.30;0.90;;;34.30;65.80;;;;;;2585699;54;20800;31
2022/06/18 10:45:49;;;;;;;1.53;0.50;;;34.50;66.20;;;;;;2585430;54;20052;31
2022/06/18 10:48:34;;;;;;;1.58;0.60;;;34.50;65.70;;;;;;2604452;46;20060;31
2022/06/18 10:51:17;;;;;;;1.73;0.50;;;34.50;65.30;;;;;;2586095;54;20073;31
2022/06/18 10:56:26;;;;;;;0.80;0.50;;;34.30;65.70;;;;;;2586030;54;20970;31
2022/06/18 10:59:03;;;;;;;0.80;0.40;;;34.20;65.90;;;;;;2585740;54;20116;31
2022/06/18 11:01:39;;;;;;;2.50;0.50;;;34.20;65.20;;;;;;2596738;46;20926;31
2022/06/18 11:04:33;;;;;;;5.73;0.73;;;34.20;65.90;;;;;;2585715;54;20027;31
2022/06/18 11:07:18;;;;;;;2.70;0.70;;;34.10;65.10;;;;;;2585896;54;20030;31
2022/06/18 11:10:06;;;;;;;1.83;0.50;;;33.90;64.60;;;;;;2594669;46;20637;31
2022/06/18 11:12:47;;;;;;;1.95;0.82;;;33.60;65.30;;;;;;2585345;54;21237;31
2022/06/18 11:15:26;;;;;;;1.57;0.50;;;33.50;66.20;;;;;;2585144;54;20022;31
2022/06/18 11:18:05;;;;;;;1.63;0.60;;;33.60;66.30;;;;;;2689578;39;22210;31
2022/06/18 11:20:58;;;;;;;1.63;0.50;;;33.70;67.30;;;;;;2585982;54;20089;31
2022/06/18 11:23:32;;;;;;;1.33;0.50;;;33.80;66.10;;;;;;2586039;54;22328;31
2022/06/18 11:26:29;;;;;;;0.75;0.40;;;33.70;65.20;;;;;;2585994;54;21428;31
2022/06/18 11:29:07;;;;;;;2.33;0.67;;;33.80;65.90;;;;;;2585257;54;20997;31
2022/06/18 11:34:47;;;;;;;1.67;0.60;;;33.80;65.40;;;;;;2585967;54;20911;31
2022/06/18 11:37:57;;;;;;;4.93;0.70;;;33.60;64.40;;;;;;2585908;54;20034;31
2022/06/18 11:41:06;;;;;;;2.83;0.60;;;33.60;64.80;;;;;;2585808;54;20030;31
2022/06/18 11:43:52;;;;;;;4.05;1.00;;;33.60;67.30;;;;;;2585847;54;20033;31
2022/06/18 11:46:47;;;;;;;3.70;0.63;;;33.60;66.30;;;;;;2585669;54;20983;31
2022/06/18 11:49:29;;;;;;;2.00;0.60;;;33.80;66.00;;;;;;2604202;46;20113;31
2022/06/18 11:55:26;;;;;;;0.82;0.50;;;33.70;65.10;;;;;;2585830;54;21192;31
2022/06/18 11:58:27;;;;;;;3.60;0.40;;;33.50;65.10;;;;;;2586014;54;20640;31
2022/06/18 12:01:08;;;;;;;2.00;0.63;;;33.40;66.40;;;;;;2585812;54;20097;31
2022/06/18 12:09:42;;;;;;;3.10;0.80;;;33.40;65.90;;;;;;2585628;54;20989;31
2022/06/18 12:12:40;;;;;;;1.15;0.60;;;33.40;65.70;;;;;;2585847;54;21161;31
2022/06/18 12:15:27;;;;;;;2.65;0.70;;;33.40;65.60;;;;;;2585820;54;21004;31
2022/06/18 12:18:18;;;;;;;2.30;0.95;;;33.40;66.70;;;;;;2585938;54;20032;31
2022/06/18 12:21:14;;;;;;;6.47;0.80;;;33.60;67.30;;;;;;2585889;54;21117;31
2022/06/18 12:23:54;;;;;;;1.30;0.50;;;33.50;65.90;;;;;;2585458;54;20951;31
2022/06/18 12:26:47;;;;;;;2.80;0.60;;;33.50;66.40;;;;;;2585787;54;20951;31
2022/06/18 12:39:18;;;;;;;3.50;0.63;;;33.40;65.90;;;;;;2585960;54;20230;31
2022/06/18 12:41:56;;;;;;;1.37;0.53;;;33.50;66.80;;;;;;2604094;46;20078;31
2022/06/18 12:44:42;;;;;;;4.07;0.60;;;33.40;67.50;;;;;;2585335;54;20081;31
2022/06/18 12:47:23;;;;;;;2.80;0.60;;;33.50;65.90;;;;;;2585619;54;20037;31
2022/06/18 12:50:14;;;;;;;1.42;0.52;;;33.40;65.30;;;;;;2585328;54;20033;31
2022/06/18 12:59:44;;;;;;;1.17;0.60;;;33.40;66.20;;;;;;2585830;54;20112;31
2022/06/18 13:02:45;;;;;;;2.35;0.80;;;33.40;65.30;;;;;;2585621;54;20081;31
2022/06/18 13:05:49;;;;;;;2.17;0.60;;;33.30;65.90;;;;;;2585834;54;20038;31
2022/06/18 13:08:39;;;;;;;1.50;0.70;;;33.20;66.10;;;;;;2584579;54;20023;31
2022/06/18 13:11:23;;;;;;;1.10;0.80;;;33.10;66.20;;;;;;2683213;39;21633;31
2022/06/18 13:14:17;;;;;;;2.60;0.75;;;33.20;66.90;;;;;;2585715;54;20114;31
2022/06/18 13:22:32;;;;;;;1.90;1.00;;;33.20;66.70;;;;;;2585545;54;20033;31
2022/06/18 13:30:57;;;;;;;2.10;0.50;;;33.20;67.40;;;;;;2584717;54;20043;31
2022/06/18 13:33:43;;;;;;;2.55;0.50;;;33.20;66.30;;;;;;2603675;46;20934;31
2022/06/18 13:36:46;;;;;;;2.10;0.75;;;33.20;66.10;;;;;;2585589;54;20026;31
2022/06/18 13:39:23;;;;;;;2.72;1.02;;;33.20;65.90;;;;;;2585042;54;20038;31
2022/06/18 13:42:08;;;;;;;1.83;0.70;;;33.10;66.50;;;;;;2584516;54;20027;31
2022/06/18 13:45:01;;;;;;;3.30;0.70;;;33.10;66.60;;;;;;2585666;54;20759;31
2022/06/18 13:47:41;;;;;;;4.13;0.73;;;33.10;66.10;;;;;;2585340;54;20053;31
2022/06/18 13:50:21;;;;;;;2.30;0.70;;;33.10;67.10;;;;;;2585303;54;20074;31
2022/06/18 13:52:57;;;;;;;6.63;0.80;;;33.00;66.90;;;;;;2683601;39;22440;31
2022/06/18 13:55:35;;;;;;;1.85;0.80;;;33.00;67.30;;;;;;2604024;47;20088;31
2022/06/18 13:58:18;;;;;;;4.20;1.10;;;32.90;66.00;;;;;;2585433;54;20031;31
2022/06/18 14:00:54;;;;;;;2.55;0.80;;;32.90;67.50;;;;;;2585560;54;22351;31
2022/06/18 14:03:42;;;;;;;3.25;0.80;;;32.90;67.90;;;;;;2603781;47;20841;31
2022/06/18 14:06:23;;;;;;;1.52;0.50;;;32.90;67.50;;;;;;2585203;54;20898;31
2022/06/18 14:09:01;;;;;;;2.33;0.75;;;32.90;67.90;;;;;;2585413;54;20050;31
2022/06/18 14:11:42;;;;;;;2.30;0.73;;;32.90;67.20;;;;;;2584408;54;21026;31
2022/06/18 14:17:13;;;;;;;3.53;1.20;;;32.90;67.10;;;;;;2585554;54;20940;31
2022/06/18 14:24:03;;;;;;;2.13;0.70;;;32.80;66.50;;;;;;2586342;54;20249;31
2022/06/18 14:29:49;;;;;;;2.40;0.80;;;32.60;67.80;;;;;;2586236;54;20026;31
2022/06/18 14:32:32;;;;;;;2.60;0.80;;;32.70;67.90;;;;;;2586254;54;20033;31
2022/06/18 14:35:34;;;;;;;2.77;1.10;;;32.70;67.90;;;;;;2604857;46;20031;31
2022/06/18 14:38:15;;;;;;;2.80;1.02;;;32.60;67.40;;;;;;2586619;54;20260;31
2022/06/18 14:43:40;;;;;;;1.70;0.95;;;32.60;67.40;;;;;;2585863;54;20028;31
2022/06/18 14:46:20;;;;;;;2.30;0.80;;;32.50;67.50;;;;;;2602575;46;21181;31
2022/06/18 14:49:22;;;;;;;4.25;0.90;;;32.50;68.30;;;;;;2588287;46;20825;31
2022/06/18 14:52:28;;;;;;;4.75;0.65;;;32.40;67.90;;;;;;2586142;54;20980;31
2022/06/18 14:55:23;;;;;;;;;;;32.40;68.30;;;;;;2604956;46;20053;31
2022/06/18 15:01:28;;;;;;;5.17;1.20;;;32.30;68.30;;;;;;2604242;46;20118;31
2022/06/18 15:04:09;;;;;;;2.78;0.63;;;32.40;68.80;;;;;;2586075;54;20121;31
2022/06/18 15:06:43;;;;;;;1.63;0.87;;;32.40;68.80;;;;;;2604107;46;21132;31
2022/06/18 15:09:30;;;;;;;2.10;1.13;;;32.40;68.80;;;;;;2586120;54;20026;31
2022/06/18 15:12:06;;;;;;;4.40;1.20;;;32.40;68.20;;;;;;2586178;54;20023;31
2022/06/18 15:14:49;;;;;;;1.70;0.80;;;32.40;68.10;;;;;;2604767;46;22656;31
2022/06/18 15:17:42;;;;;;;1.67;0.87;;;32.40;69.00;;;;;;2586136;54;20075;31
2022/06/18 15:20:31;;;;;;;1.73;0.80;;;32.30;68.60;;;;;;2586105;54;20230;31
2022/06/18 15:23:04;;;;;;;3.28;0.80;;;32.40;68.80;;;;;;2683959;39;22514;31
2022/06/18 15:25:47;;;;;;;4.82;1.00;;;32.30;68.80;;;;;;2585127;54;20058;31
2022/06/18 15:28:23;;;;;;;2.55;1.00;;;32.40;69.20;;;;;;2585863;54;20085;31
2022/06/18 15:31:11;;;;;;;4.40;1.00;;;32.30;69.00;;;;;;2585616;54;20794;31
2022/06/18 15:34:06;;;;;;;9.25;1.30;;;32.40;69.20;;;;;;2585699;54;20038;31
2022/06/18 15:37:04;;;;;;;4.43;1.10;;;32.30;69.20;;;;;;2585817;54;20030;31
2022/06/18 15:42:44;;;;;;;1.60;0.75;;;32.20;69.40;;;;;;2585611;54;20819;31
2022/06/18 15:45:27;;;;;;;1.90;0.80;;;32.20;69.30;;;;;;2585873;54;20765;31
2022/06/18 15:48:09;;;;;;;2.40;0.90;;;32.20;70.00;;;;;;2604200;46;20085;31
2022/06/18 15:57:09;;;;;;;3.60;0.90;;;32.30;69.30;;;;;;2585898;54;20092;31
2022/06/18 16:00:22;;;;;;;;;;;;;;;;;;;;;
2022/06/18 16:02:56;;;;;;;3.83;1.20;;;32.40;69.70;;;;;;2586111;54;20048;31
2022/06/18 16:05:36;;;;;;;5.00;1.47;;;32.30;68.40;;;;;;2585848;54;20033;31
2022/06/18 16:08:34;;;;;;;10.03;1.27;;;32.40;68.30;;;;;;2585858;54;20029;31
2022/06/18 16:11:24;;;;;;;6.13;1.10;;;32.40;68.30;;;;;;2585645;54;20238;31
2022/06/18 16:14:28;;;;;;;6.47;1.38;;;32.30;67.80;;;;;;2585728;54;20032;31
2022/06/18 16:17:09;;;;;;;4.97;1.42;;;32.30;67.80;;;;;;2604491;46;20981;31
2022/06/18 16:19:49;;;;;;;8.85;1.50;;;32.30;67.90;;;;;;2585594;54;20914;31
2022/06/18 16:22:33;;;;;;;3.47;1.20;;;32.30;67.80;;;;;;2604136;46;20817;31
2022/06/18 16:25:25;;;;;;;4.20;1.20;;;32.30;67.50;;;;;;2585783;54;20140;31
2022/06/18 16:31:10;;;;;;;5.65;1.30;;;32.20;67.80;;;;;;2585677;54;20890;31
2022/06/18 16:34:02;;;;;;;8.70;1.50;;;32.20;68.50;;;;;;2585468;54;20030;31
2022/06/18 16:36:39;;;;;;;3.47;0.90;;;32.10;68.70;;;;;;2585725;54;20298;31
2022/06/18 16:39:16;;;;;;;8.95;1.30;;;32.10;69.10;;;;;;2604417;46;20113;31
2022/06/18 16:41:53;;;;;;;4.68;1.38;;;32.10;68.90;;;;;;2585581;54;20057;31
2022/06/18 16:44:33;;;;;;;5.15;1.25;;;32.10;69.20;;;;;;2585477;54;20030;31
2022/06/18 16:47:15;;;;;;;4.87;0.97;;;31.90;69.50;;;;;;2585392;54;20059;31
2022/06/18 16:50:08;;;;;;;29.88;3.22;;;31.90;70.10;;;;;;2585761;54;21002;31
2022/06/18 16:52:51;;;;;;;4.20;1.53;;;31.90;69.70;;;;;;2702069;39;22465;31
2022/06/18 16:55:37;;;;;;;4.68;1.05;;;31.80;70.30;;;;;;2603949;46;20262;31
2022/06/18 16:58:14;;;;;;;;;;;31.80;70.60;;;;;;2604019;46;21041;31
2022/06/18 17:00:52;;;;;;;3.07;1.17;;;31.90;70.30;;;;;;2594624;46;19985;31
2022/06/18 17:06:24;;;;;;;2.67;1.17;;;31.80;70.60;;;;;;2585417;54;21003;31
2022/06/18 17:09:04;;;;;;;5.00;1.00;;;31.80;70.70;;;;;;2754497;31;22345;31
2022/06/18 17:11:41;;;;;;;4.40;1.33;;;31.80;71.10;;;;;;2585442;54;20038;31
2022/06/18 17:14:19;;;;;;;3.20;1.20;;;31.70;70.70;;;;;;2585301;54;21162;31
2022/06/18 17:19:49;;;;;;;3.53;1.30;;;31.60;71.20;;;;;;2585286;54;20887;31
2022/06/18 17:22:37;;;;;;;4.40;1.27;;;31.60;71.40;;;;;;2585587;54;20963;31
2022/06/18 17:33:46;;;;;;;5.15;1.20;;;31.40;71.40;;;;;;2585125;54;20809;31
2022/06/18 17:36:25;;;;;;;7.40;1.65;;;31.30;71.60;;;;;;2585413;54;20026;31
2022/06/18 17:39:06;;;;;;;4.93;1.45;;;31.30;71.90;;;;;;2604193;46;20946;31
2022/06/18 17:41:52;;;;;;;6.80;1.50;;;31.30;71.90;;;;;;2585395;54;20936;31
2022/06/18 17:44:33;;;;;;;8.98;1.52;;;31.20;71.80;;;;;;2603372;46;20068;31
2022/06/18 17:47:10;;;;;;;4.53;1.20;;;31.10;72.70;;;;;;2585530;54;20033;31
2022/06/18 17:49:49;;;;;;;4.60;1.40;;;31.00;72.70;;;;;;2584568;54;20027;31
2022/06/18 17:52:26;;;;;;;4.68;1.10;;;30.90;73.00;;;;;;2585044;54;20074;31
2022/06/18 17:55:18;;;;;;;3.03;1.52;;;30.90;72.80;;;;;;2584468;54;20046;31
2022/06/18 17:58:01;;;;;;;3.20;1.00;;;30.80;72.70;;;;;;2603880;46;20023;31
2022/06/18 18:00:39;;;;;;;3.95;1.15;;;30.70;73.20;;;;;;2603414;46;20941;31
2022/06/18 18:03:21;;;;;;;4.40;1.10;;;30.60;73.40;;;;;;2584826;54;20897;31
2022/06/18 18:05:54;;;;;;;3.55;1.30;;;30.50;73.30;;;;;;2585721;54;20108;31
2022/06/18 18:08:33;;;;;;;3.58;0.90;;;30.50;73.70;;;;;;2603616;46;20027;31
2022/06/18 18:11:14;;;;;;;2.65;1.00;;;30.40;73.90;;;;;;2593768;46;20933;31
2022/06/18 18:13:49;;;;;;;5.05;1.30;;;30.30;73.90;;;;;;2584601;54;20033;31
2022/06/18 18:16:26;;;;;;;4.55;1.27;;;30.30;73.70;;;;;;2585839;54;20076;31
2022/06/18 18:18:58;;;;;;;4.88;1.13;;;30.20;73.60;;;;;;2584593;54;20264;31
2022/06/18 18:21:38;;;;;;;2.00;1.38;;;30.10;73.80;;;;;;2585852;54;20050;31
2022/06/18 18:24:12;;;;;;;5.10;1.55;;;30.00;74.10;;;;;;2585531;54;20037;31
2022/06/18 18:26:52;;;;;;;3.90;1.13;;;29.90;74.00;;;;;;2585574;54;20065;31
2022/06/18 18:29:35;;;;;;;3.40;1.10;;;29.90;74.30;;;;;;2593152;46;21024;31
2022/06/18 18:32:13;;;;;;;2.92;1.10;;;29.90;74.40;;;;;;2603764;46;20058;31
2022/06/18 18:34:50;;;;;;;2.60;1.30;;;29.80;74.40;;;;;;2585564;54;21002;31
2022/06/18 18:37:33;;;;;;;3.35;0.95;;;29.70;74.70;;;;;;2585565;54;20121;31
2022/06/18 18:40:13;;;;;;;3.85;1.10;;;29.60;74.80;;;;;;2584446;54;20054;31
2022/06/18 18:42:54;;;;;;;3.70;0.95;;;29.60;75.00;;;;;;2585349;54;20780;31
2022/06/18 18:45:31;;;;;;;2.87;1.20;;;29.50;75.00;;;;;;2585543;54;20117;31
2022/06/18 18:48:12;;;;;;;3.10;1.13;;;29.50;75.10;;;;;;2584528;54;20034;31
2022/06/18 18:51:00;;;;;;;4.45;1.00;;;29.30;75.20;;;;;;2585554;54;21335;31
2022/06/18 18:53:48;;;;;;;4.75;1.20;;;29.30;75.40;;;;;;2585267;54;22108;31
2022/06/18 18:56:24;;;;;;;4.95;1.00;;;29.10;75.40;;;;;;2603845;46;20122;31
2022/06/18 18:59:27;;;;;;;2.70;1.00;;;29.20;75.50;;;;;;2585078;54;20963;31
2022/06/18 19:02:24;;;;;;;2.15;0.90;;;29.00;75.60;;;;;;2585436;54;20085;31
2022/06/18 19:05:01;;;;;;;5.05;1.55;;;29.00;75.80;;;;;;2586017;54;20907;31
2022/06/18 19:07:38;;;;;;;1.95;0.95;;;29.00;75.90;;;;;;2585431;54;20120;31
2022/06/18 19:10:13;;;;;;;7.20;1.10;;;28.90;76.20;;;;;;2585632;54;20030;31
2022/06/18 19:13:06;;;;;;;2.55;1.15;;;28.80;76.20;;;;;;2585550;54;20884;31
2022/06/18 19:15:46;;;;;;;3.10;1.10;;;28.70;76.10;;;;;;2585385;54;20941;31
2022/06/18 19:18:20;;;;;;;4.40;1.23;;;28.70;76.20;;;;;;2585276;54;20898;31
2022/06/18 19:20:54;;;;;;;3.05;1.45;;;28.60;76.20;;;;;;2585587;54;20037;31
2022/06/18 19:23:29;;;;;;;5.27;1.47;;;28.50;76.20;;;;;;2603880;46;20235;31
2022/06/18 19:26:02;;;;;;;3.47;1.10;;;28.50;76.20;;;;;;2585309;54;20034;31
2022/06/18 19:28:37;;;;;;;3.13;1.00;;;28.40;76.20;;;;;;2585417;54;20967;31
2022/06/18 19:31:17;;;;;;;3.75;1.30;;;28.30;76.50;;;;;;2604028;46;20175;31
2022/06/18 19:33:49;;;;;;;5.82;1.67;;;28.20;76.50;;;;;;2585495;54;21919;31
2022/06/18 19:36:22;;;;;;;2.60;1.30;;;28.10;76.50;;;;;;2585184;54;20034;31
2022/06/18 19:38:57;;;;;;;7.32;1.38;;;28.10;76.80;;;;;;2701849;39;21075;31
2022/06/18 19:41:32;;;;;;;1.85;1.20;;;28.10;76.90;;;;;;2585211;54;20042;31
2022/06/18 19:44:08;;;;;;;3.75;1.10;;;28.00;77.20;;;;;;2585339;54;20042;31
2022/06/18 19:46:43;;;;;;;2.10;1.17;;;28.00;77.30;;;;;;2603937;46;20977;31
2022/06/18 19:49:16;;;;;;;3.55;1.20;;;27.90;77.40;;;;;;2585224;54;20913;31
2022/06/18 19:51:58;;;;;;;3.70;1.23;;;27.80;77.60;;;;;;2585668;54;20905;31
2022/06/18 19:54:50;;;;;;;3.50;0.90;;;27.80;77.80;;;;;;2603800;46;21902;31
2022/06/18 19:57:23;;;;;;;5.60;1.30;;;27.70;77.90;;;;;;2585422;54;20080;31
2022/06/18 19:59:57;;;;;;;4.80;1.10;;;27.70;78.10;;;;;;2603960;46;20026;31
2022/06/18 20:02:35;;;;;;;5.80;1.13;;;27.60;78.20;;;;;;2604015;46;20051;31
2022/06/18 20:05:10;;;;;;;5.28;1.55;;;27.50;78.30;;;;;;2585258;54;20038;31
2022/06/18 20:07:42;;;;;;;3.25;1.20;;;27.40;78.50;;;;;;2585315;54;20929;31
2022/06/18 20:10:15;;;;;;;4.40;1.55;;;27.50;78.70;;;;;;2604094;46;22432;31
2022/06/18 20:12:51;;;;;;;2.80;1.20;;;27.40;78.70;;;;;;2585094;54;20809;31
2022/06/18 20:15:26;;;;;;;2.90;1.23;;;27.30;79.10;;;;;;2584972;54;20945;31
2022/06/18 20:18:04;;;;;;;2.75;1.45;;;27.30;79.10;;;;;;2604068;46;20034;31
2022/06/18 20:20:44;;;;;;;7.00;1.45;;;27.20;79.30;;;;;;2585637;54;21239;31
2022/06/18 20:23:22;;;;;;;3.70;1.40;;;27.20;79.50;;;;;;2585364;54;20051;31
2022/06/18 20:25:56;;;;;;;3.50;1.38;;;27.10;79.50;;;;;;2603607;46;20988;31
2022/06/18 20:28:33;;;;;;;2.83;1.23;;;27.00;79.90;;;;;;2585339;54;20101;31
2022/06/18 20:31:10;;;;;;;4.10;1.20;;;27.00;79.90;;;;;;2585075;54;20249;31
2022/06/18 20:33:51;;;;;;;3.33;1.30;;;26.90;80.20;;;;;;2603513;46;20045;31
2022/06/18 20:36:23;;;;;;;1.97;1.30;;;26.90;80.50;;;;;;2585090;54;20950;31
2022/06/18 20:39:02;;;;;;;4.28;1.40;;;26.80;80.40;;;;;;2585269;54;21010;31
2022/06/18 20:41:36;;;;;;;2.30;1.40;;;26.80;80.90;;;;;;2585194;54;19939;31
2022/06/18 20:44:13;;;;;;;3.45;1.70;;;26.70;80.80;;;;;;2585199;54;20801;31
2022/06/18 20:46:47;;;;;;;3.80;1.50;;;26.60;81.20;;;;;;2603341;46;20026;31
2022/06/18 20:49:37;;;;;;;3.72;1.70;;;26.50;81.20;;;;;;2585223;54;20030;31
2022/06/18 20:52:12;;;;;;;5.63;1.90;;;26.50;81.20;;;;;;2584737;54;20868;31
2022/06/18 20:57:37;;;;;;;5.22;1.80;;;26.40;81.40;;;;;;2585074;54;20874;31
2022/06/18 21:00:11;;;;;;;4.80;1.35;;;26.30;81.30;;;;;;2584990;54;20113;31
2022/06/18 21:02:48;;;;;;;5.20;2.00;;;26.30;82.20;;;;;;2584632;54;20027;31
2022/06/18 21:05:24;;;;;;;3.35;1.85;;;26.20;81.70;;;;;;2701672;39;21222;31
2022/06/18 21:08:00;;;;;;;2.15;1.30;;;26.20;81.60;;;;;;2585445;54;20914;31
2022/06/18 21:10:33;;;;;;;4.80;1.40;;;26.10;81.60;;;;;;2585247;54;20026;31
2022/06/18 21:13:07;;;;;;;3.20;1.20;;;26.10;81.80;;;;;;2585169;54;20045;31
2022/06/18 21:15:44;;;;;;;8.25;1.50;;;26.00;82.10;;;;;;2584888;54;20054;31
2022/06/18 21:18:22;;;;;;;3.67;1.60;;;25.90;82.20;;;;;;2585119;54;20805;31
2022/06/18 21:21:02;;;;;;;5.53;1.70;;;25.80;82.60;;;;;;2585392;54;20923;31
2022/06/18 21:23:37;;;;;;;5.65;1.65;;;25.80;83.20;;;;;;2603675;46;21218;31
2022/06/18 21:26:10;;;;;;;5.28;2.28;;;25.70;83.90;;;;;;2585214;54;20077;31
2022/06/18 21:28:46;;;;;;;5.57;1.83;;;25.60;84.30;;;;;;2584906;54;20022;31
2022/06/18 21:37:04;;;;;;;6.93;2.00;;;25.40;85.90;;;;;;2603534;46;21965;31
2022/06/18 21:39:36;;;;;;;9.02;3.58;;;25.30;87.00;;;;;;2585091;54;20030;31
2022/06/18 21:42:10;;;;;;;3.65;2.60;;;25.30;86.30;;;;;;2585298;54;20902;31
2022/06/18 21:44:45;;;;;;;6.28;2.53;;;25.20;87.60;;;;;;2585296;54;20077;31
2022/06/18 21:47:18;;;;;;;5.47;2.07;;;25.10;86.50;;;;;;2603500;46;20990;31
2022/06/18 21:49:52;;;;;;;6.32;2.20;;;25.10;86.20;;;;;;2584881;54;20266;31
2022/06/18 21:52:29;;;;;;;7.30;2.90;;;25.00;87.60;;;;;;2603749;46;20026;31
2022/06/18 21:55:01;;;;;;;3.83;1.90;;;24.90;88.00;;;;;;2584911;54;20161;31
2022/06/18 21:57:38;;;;;;;4.55;2.20;;;24.80;88.10;;;;;;2585304;54;20022;31
2022/06/18 22:00:14;;;;;;;3.53;1.90;;;24.70;87.70;;;;;;2585419;54;21107;31
2022/06/18 22:02:46;;;;;;;5.68;2.22;;;24.60;87.70;;;;;;2603485;47;21100;31
2022/06/18 22:05:20;;;;;;;7.43;2.55;;;24.40;88.30;;;;;;2603263;47;20835;31
2022/06/18 22:07:57;;;;;;;4.30;2.55;;;24.40;88.70;;;;;;2603474;47;20113;31
2022/06/18 22:10:29;;;;;;;4.75;2.70;;;24.30;89.20;;;;;;2585261;54;22362;31
2022/06/18 22:18:33;;;;;;;8.40;3.15;;;24.10;90.10;;;;;;2585225;54;20868;31
2022/06/18 22:21:07;;;;;;;6.40;2.60;;;24.00;90.50;;;;;;2682244;39;20500;31
2022/06/18 22:23:44;;;;;;;4.80;2.20;;;24.00;90.70;;;;;;2584908;54;20999;31
2022/06/18 22:26:16;;;;;;;7.30;2.20;;;24.00;91.10;;;;;;2585241;54;21165;31
2022/06/18 22:28:50;;;;;;;4.10;2.60;;;23.80;91.20;;;;;;2585181;54;20235;31
2022/06/18 22:31:24;;;;;;;5.78;2.85;;;23.70;91.40;;;;;;2584910;54;20858;31
2022/06/18 22:33:58;;;;;;;4.57;2.53;;;23.60;91.20;;;;;;2584884;54;20048;31
2022/06/18 22:36:32;;;;;;;7.90;3.10;;;23.50;91.60;;;;;;2584785;54;20149;31
2022/06/18 22:39:07;;;;;;;6.28;2.53;;;23.50;92.10;;;;;;2683249;39;22424;31
2022/06/18 22:41:43;;;;;;;6.33;2.90;;;23.30;92.30;;;;;;2683261;39;22245;31
2022/06/18 22:44:16;;;;;;;8.10;3.97;;;23.30;92.30;;;;;;2585807;54;20053;31
2022/06/18 22:46:50;;;;;;;8.40;3.90;;;23.30;92.20;;;;;;2585968;54;20029;31
2022/06/18 22:49:26;;;;;;;6.50;3.15;;;23.10;92.50;;;;;;2586114;54;20034;31
2022/06/18 22:51:58;;;;;;;8.02;4.60;;;23.20;92.90;;;;;;2604228;46;20113;31
2022/06/18 22:54:36;;;;;;;8.25;4.35;;;23.10;92.70;;;;;;2585776;54;20116;31
2022/06/18 22:57:08;;;;;;;7.72;4.68;;;23.00;93.10;;;;;;2586046;54;20893;31
2022/06/18 22:59:42;;;;;;;7.90;4.10;;;22.90;93.30;;;;;;2604568;46;20130;31
2022/06/18 23:02:16;;;;;;;8.15;4.15;;;22.70;93.70;;;;;;2604655;46;20088;31
2022/06/18 23:04:52;;;;;;;6.70;3.15;;;22.60;94.30;;;;;;2585776;54;20971;31
2022/06/18 23:07:27;;;;;;;6.80;3.60;;;22.60;94.60;;;;;;2585797;54;20049;31
2022/06/18 23:10:13;;;;;;;7.88;3.50;;;22.60;95.40;;;;;;2585962;54;20907;31
2022/06/18 23:12:49;;;;;;;8.10;3.28;;;22.50;95.80;;;;;;2585516;54;20906;31
2022/06/18 23:15:25;;;;;;;7.00;2.70;;;22.50;96.00;;;;;;2584771;54;20955;31
2022/06/18 23:18:01;;;;;;;5.70;2.73;;;22.60;96.20;;;;;;2585716;54;20094;31
2022/06/18 23:20:36;;;;;;;5.40;3.03;;;22.50;96.60;;;;;;2585549;54;21149;31
2022/06/18 23:23:18;;;;;;;4.70;3.10;;;22.50;97.30;;;;;;2585566;54;20799;31
2022/06/18 23:25:56;;;;;;;9.40;3.60;;;22.50;98.00;;;;;;2585856;54;20030;31
2022/06/18 23:28:32;;;;;;;5.95;3.40;;;22.40;99.10;;;;;;2585981;54;20026;31
2022/06/18 23:31:07;;;;;;;;;;;22.30;99.10;;;;;;2604183;46;20883;31
2022/06/18 23:33:50;;;;;;;6.90;3.20;;;22.30;99.90;;;;;;2585757;54;21850;31
2022/06/18 23:36:29;;;;;;;;;;;22.20;99.90;;;;;;2585795;54;20176;31
2022/06/18 23:39:09;;;;;;;17.60;3.80;;;22.20;99.90;;;;;;2585701;54;20850;31
2022/06/18 23:42:00;;;;;;;6.80;3.27;;;22.00;99.90;;;;;;2584833;54;21005;31
2022/06/18 23:44:36;;;;;;;5.60;3.10;;;22.10;99.90;;;;;;2585700;54;20154;31
2022/06/18 23:47:12;;;;;;;8.25;3.85;;;22.10;99.90;;;;;;2585737;54;20100;31
2022/06/18 23:49:45;;;;;;;4.10;3.27;;;22.00;99.90;;;;;;2585821;54;20026;31
2022/06/18 23:52:32;;;;;;;4.43;3.10;;;22.00;99.90;;;;;;2585824;54;21070;31
2022/06/18 23:55:06;;;;;;;3.63;3.10;;;21.90;99.90;;;;;;2603832;47;22490;31
2022/06/18 23:57:46;;;;;;;8.77;2.97;;;22.00;99.90;;;;;;2585793;54;20588;31
